Tiempo atmosférico en la estación meteorológica de Cenicero, La Rioja (429 m.)



Fecha
DESCASC
Temp. máxima en grados centígrados (hora)
DESCASC
Temp. mínima en grados centígrados (hora)
DESCASC
Temp. media en grados centígrados
DESCASC
Racha de viento máxima en m/sg (hora)
DESCASC
Velocidad máxima media en intervalos de 10 minutos(hora)
DESCASC
Precipitaciones diarias en mm
DESCASC
Precipitaciones de 00:00 a 06:00 en mm
DESCASC
Precipitaciones de 06:00 a 12:00 en mm
DESCASC
Precipitaciones de 12:00 a 18:00 en mm
DESCASC
Precipitaciones de 18:00 a 24:00 en mm
DESCASC
29-10-2020 19.9 (15:40) 4.9 (07:00) 12.4 5 (14:10) 1.94 (21:00) 0 0 0 0 0
28-10-2020 20.1 (16:30) 8.7 (01:30) 14.4 4.72 (12:30) 2.78 (11:10) 0 0 0 0 0
27-10-2020 16.1 (15:30) 7 (00:00) 11.6 12.5 (13:10) 6.67 (13:00) 0.2 0 0 0 0.2
26-10-2020 13.8 (14:00) 6 (00:00) 9.9 11.94 (14:20) 6.11 (13:50) 0.2 0.2 0 0 0
25-10-2020 17.6 (14:20) 8.8 (00:00) 13.2 11.39 (19:50) 6.11 (20:00) 2.8 0 0 2.8 0
24-10-2020 17 (13:40) 6.2 (00:00) 11.6 8.33 (16:00) 5 (15:50) 0 0 0 0 0
23-10-2020 17.3 (17:00) 10.5 (00:00) 13.9 11.67 (14:00) 6.94 (15:00) 2.6 2.4 0.2 0 0
22-10-2020 20.9 (15:20) 11.2 (00:00) 16 7.78 (13:20) 4.44 (13:10) 1.2 0 0 0 1.2
21-10-2020 22.2 (15:00) 12 (00:00) 17.1 14.17 (01:30) 6.39 (01:30) 0.4 0.4 0 0 0
20-10-2020 17.7 (12:10) 14 (00:00) 15.9 17.78 (21:30) 9.17 (22:00) 0.6 0 0 0 0.6
19-10-2020 20.4 (17:20) 7.6 (00:00) 14 13.33 (16:30) 7.22 (14:30) 0 0 0 0 0
18-10-2020 21.9 (16:50) 3.6 (00:00) 12.7 4.44 (17:40) 2.22 (18:30) 0 0 0 0 0
17-10-2020 18.7 (16:50) 0.5 (00:00) 9.6 6.67 (17:40) 4.17 (17:20) 0 0 0 0 0
16-10-2020 14.2 (17:20) 5.4 (00:00) 9.8 6.67 (14:00) 4.17 (15:00) 0 0 0 0 0
15-10-2020 10.8 (14:40) 6.2 (00:00) 8.5 8.06 (11:00) 4.72 (11:10) 0.2 0 0.2 0 0
14-10-2020 13.3 (12:40) 8 (00:00) 10.7 11.67 (11:20) 6.11 (12:50) 3.2 0 0.2 2 1
13-10-2020 17.3 (15:10) 11.1 (00:00) 14.2 7.5 (15:30) 4.17 (14:30) 2 2 0 0 0
12-10-2020 16.7 (17:20) 8.1 (00:00) 12.4 8.06 (15:30) 5 (15:30) 1.4 1.2 0.2 0 0
11-10-2020 13.1 (15:50) 9.1 (00:00) 11.1 10.83 (18:30) 5.28 (15:40) 1.2 0 0 0.2 1
10-10-2020 17.5 (16:40) 11.3 (00:00) 14.4 8.89 (15:10) 5.28 (15:10) 0 0 0 0 0
09-10-2020 22.9 (16:20) 9.3 (00:00) 16.1 5.56 (16:40) 3.33 (14:50) 0 0 0 0 0
08-10-2020 21.6 (15:50) 8.3 (00:00) 15 6.11 (17:00) 3.06 (13:40) 0 0 0 0 0
07-10-2020 24 (16:30) 12.6 (00:00) 18.3 7.5 (12:50) 4.17 (12:50) 0 0 0 0 0
06-10-2020 22.4 (14:40) 11.5 (00:00) 16.9 14.17 (12:50) 7.5 (12:50) 0 0 0 0 0
05-10-2020 19.7 (16:50) 7.3 (00:00) 13.5 10.56 (16:20) 6.11 (16:30) 0 0 0 0 0
04-10-2020 16.3 (12:10) 8.4 (00:00) 12.3 12.22 (12:20) 7.5 (12:20) 3.6 0 0 3.6 0
03-10-2020 16.2 (14:30) 9.1 (00:00) 12.7 16.39 (12:40) 8.61 (12:50) 0 0 0 0 0
02-10-2020 18.5 (05:50) 8.7 (00:00) 13.6 14.44 (07:00) 8.61 (07:00) 7.4 0 7.4 0 0
01-10-2020 22 (16:50) 10.3 (00:00) 16.2 8.61 (13:10) 5 (13:20) 0 0 0 0 0

Gráficas

Temp. máximas Temp. mínimas Temp. medias Precipitaciones Rachas de viento máximas Velocidades máximas media en intervalos de 10 minutos

Datos horarios

Fecha y hora oficial Temperatura (ºC) Velocidad del viento (km/h) Dirección del viento Racha (km/h) Dirección de racha Precipitación (mm) Presión (hPa) Tendencia (hPa) Humedad (%)
2020-10-30 23:00:00 8.7 0 Calma 8 Sudoeste 0 -- -- 86
2020-10-30 22:00:00 9.7 3 Sudoeste 8 Sudoeste 0 -- -- 83
2020-10-30 21:00:00 11.1 4 Sudoeste 7 Sudoeste 0 -- -- 78
2020-10-30 20:00:00 12.5 4 Sudoeste 7 Sudoeste 0 -- -- 74
2020-10-30 19:00:00 14.5 3 Sur 10 Sudoeste 0 -- -- 67
2020-10-30 18:00:00 17.9 4 Sudoeste 6 Sudoeste 0 -- -- 56
2020-10-30 17:00:00 21.1 2 Oeste 6 Oeste 0 -- -- 47
2020-10-30 16:00:00 21.3 3 Oeste 10 Sur 0 -- -- 45
2020-10-30 15:00:00 19.9 4 Este 9 Este 0 -- -- 47
2020-10-30 14:00:00 18.7 3 Nordeste 7 Este 0 -- -- 51
2020-10-30 13:00:00 17.2 3 Sudoeste 8 Sudoeste 0 -- -- 59
2020-10-30 12:00:00 14.7 3 Noroeste 7 Noroeste 0 -- -- 66
2020-10-30 11:00:00 11.6 0 Calma 4 Noroeste 0 -- -- 77
2020-10-30 10:00:00 7.3 0 Calma 4 Oeste 0 -- -- 93
2020-10-30 09:00:00 4 3 Oeste 5 Oeste 0 -- -- 98
2020-10-30 08:00:00 3 3 Oeste 4 Oeste 0 -- -- 96
2020-10-30 07:00:00 3 0 Calma 5 Sudoeste 0 -- -- 95
2020-10-30 06:00:00 3.8 3 Sudoeste 5 Sudoeste 0 -- -- 95
2020-10-30 05:00:00 4.4 3 Sudoeste 5 Oeste 0 -- -- 95
2020-10-30 04:00:00 4.9 2 Oeste 4 Oeste 0 -- -- 95
2020-10-30 03:00:00 5.7 3 Oeste 5 Oeste 0 -- -- 94
2020-10-30 02:00:00 6 2 Oeste 6 Sudoeste 0 -- -- 92
2020-10-30 01:00:00 7 0 Calma 5 Oeste 0 -- -- 92
2020-10-30 00:00:00 7.7 3 Sudoeste 5 Sudoeste 0 -- -- 90
2020-10-29 23:00:00 8.6 3 Oeste 5 Oeste 0 -- -- 89
2020-10-29 22:00:00 9.5 3 Sudoeste 9 Sudoeste 0 -- -- 86
2020-10-29 21:00:00 10.9 7 Sudoeste 9 Sudoeste 0 -- -- 81
2020-10-29 20:00:00 13.3 3 Este 5 Este 0 -- -- 72
2020-10-29 19:00:00 14.8 0 Calma 5 Sudeste 0 -- -- 67
2020-10-29 18:00:00 17.4 2 Sudeste 6 Sudeste 0 -- -- 58
2020-10-29 17:00:00 19.2 2 Este 7 Este 0 -- -- 51
2020-10-29 16:00:00 19.7 3 Nordeste 6 Sudoeste 0 -- -- 49
2020-10-29 15:00:00 18.7 2 Nordeste 18 Noroeste 0 -- -- 51
2020-10-29 14:00:00 18.1 2 Noroeste 11 Oeste 0 -- -- 55
2020-10-29 13:00:00 17.6 3 Sudoeste 8 Sudoeste 0 -- -- 59
2020-10-29 12:00:00 15.1 0 Calma 13 Noroeste 0 -- -- 67
2020-10-29 11:00:00 13.2 5 Noroeste 9 Noroeste 0 -- -- 76
2020-10-29 10:00:00 10.2 5 Sur 12 Sur 0 -- -- 95
2020-10-29 09:00:00 6.5 2 Noroeste 8 Sudoeste 0 -- -- 98
2020-10-29 08:00:00 5.1 0 Calma 6 Oeste 0 -- -- 97
2020-10-29 07:00:00 4.9 2 Noroeste 5 Oeste 0 -- -- 96
2020-10-29 06:00:00 5.4 2 Sudoeste 8 Sudoeste 0 -- -- 95
2020-10-29 05:00:00 5.9 0 Calma 4 Oeste 0 -- -- 95
2020-10-29 04:00:00 6.6 5 Sudoeste 8 Sudoeste 0 -- -- 95
2020-10-29 03:00:00 6.9 0 Calma 5 Oeste 0 -- -- 94
2020-10-29 02:00:00 7.5 4 Sudoeste 7 Oeste 0 -- -- 92
2020-10-29 01:00:00 8.7 4 Sudoeste 8 Sudoeste 0 -- -- 91
2020-10-29 00:00:00 9.3 0 Calma 8 Sudoeste 0 -- -- 88
2020-10-28 23:00:00 10.6 0 Calma 5 Este 0 -- -- 85
2020-10-28 22:00:00 11.9 3 Sudoeste 8 Oeste 0 -- -- 80
2020-10-28 21:00:00 12.9 2 Sudoeste 14 Oeste 0 -- -- 78
2020-10-28 20:00:00 14.3 7 Sudoeste 12 Sudoeste 0 -- -- 73
2020-10-28 19:00:00 16 4 Sudoeste 14 Oeste 0 -- -- 65
2020-10-28 18:00:00 17.7 6 Oeste 15 Oeste 0 -- -- 59
2020-10-28 17:00:00 19.8 0 Calma 8 Sudoeste 0 -- -- 53
2020-10-28 16:00:00 19.3 5 Sur 10 Sudoeste 0 -- -- 54
2020-10-28 15:00:00 18.6 5 Sudeste 14 Este 0 -- -- 54
2020-10-28 14:00:00 17.7 6 Este 16 Sudeste 0 -- -- 59
2020-10-28 13:00:00 16.5 9 Este 17 Este 0 -- -- 59
2020-10-28 12:00:00 15.6 8 Este 16 Este 0 -- -- 65
2020-10-28 11:00:00 13.4 8 Este 14 Este 0 -- -- 76
2020-10-28 10:00:00 11.4 6 Este 12 Este 0 -- -- 87
2020-10-28 09:00:00 10 0 Calma 5 Noroeste 0 -- -- 93
2020-10-28 08:00:00 9.7 0 Calma 4 Sudeste 0 -- -- 93
2020-10-28 07:00:00 9.4 0 Calma 13 Oeste 0 -- -- 96
2020-10-28 06:00:00 9 0 Calma 6 Este 0 -- -- 96
2020-10-28 05:00:00 8.8 0 Calma 5 Sudoeste 0 -- -- 95
2020-10-28 04:00:00 8.7 2 Sudoeste 5 Este 0 -- -- 95
2020-10-28 03:00:00 8.8 3 Oeste 8 Oeste 0 -- -- 95
2020-10-28 02:00:00 8.9 0 Calma 10 Sudoeste 0 -- -- 94
2020-10-28 01:00:00 9.2 2 Sudoeste 8 Sudoeste 0 -- -- 92
2020-10-28 00:00:00 9.9 3 Oeste 10 Sudoeste 0 -- -- 90
2020-10-27 23:00:00 9.9 5 Sudoeste 8 Sudoeste 0 -- -- 89
2020-10-27 22:00:00 10.7 2 Sur 13 Oeste 0 -- -- 87
2020-10-27 21:00:00 11.1 5 Sudoeste 11 Sudoeste 0 -- -- 87
2020-10-27 20:00:00 12.1 5 Oeste 13 Oeste 0.2 -- -- 84
2020-10-27 19:00:00 13.9 7 Sudoeste 15 Sudoeste 0 -- -- 64
2020-10-27 18:00:00 14.5 7 Oeste 27 Oeste 0 -- -- 64
2020-10-27 17:00:00 15 12 Noroeste 30 Oeste 0 -- -- 60
2020-10-27 16:00:00 16 18 Oeste 36 Noroeste 0 -- -- 56
2020-10-27 15:00:00 15 18 Noroeste 40 Noroeste 0 -- -- 60
2020-10-27 14:00:00 14.9 18 Noroeste 45 Noroeste 0 -- -- 58
2020-10-27 13:00:00 14.5 24 Noroeste 41 Noroeste 0 -- -- 59
2020-10-27 12:00:00 14.8 18 Oeste 33 Oeste 0 -- -- 58
2020-10-27 11:00:00 12.7 6 Oeste 20 Oeste 0 -- -- 66
2020-10-27 10:00:00 10.3 7 Noroeste 15 Oeste 0 -- -- 77
2020-10-27 09:00:00 8.9 8 Oeste 16 Oeste 0 -- -- 80
2020-10-27 08:00:00 8.2 9 Oeste 21 Oeste 0 -- -- 81
2020-10-27 07:00:00 8.2 12 Oeste 24 Sudoeste 0 -- -- 80
2020-10-27 06:00:00 7.7 7 Sudoeste 16 Oeste 0 -- -- 80
2020-10-27 05:00:00 7 8 Sudoeste 14 Sudoeste 0 -- -- 84
2020-10-27 04:00:00 7.4 8 Oeste 15 Sudoeste 0 -- -- 82
2020-10-27 03:00:00 7.3 6 Sudoeste 15 Oeste 0 -- -- 81
2020-10-27 02:00:00 7.4 6 Oeste 13 Oeste 0 -- -- 80
2020-10-27 01:00:00 7.2 9 Oeste 19 Oeste 0 -- -- 80
2020-10-27 00:00:00 7.2 4 Oeste 15 Oeste 0 -- -- 79
2020-10-26 23:00:00 7.8 6 Oeste 14 Oeste 0 -- -- 79
2020-10-26 22:00:00 9 8 Oeste 13 Sudoeste 0 -- -- 79
2020-10-26 21:00:00 9.8 7 Oeste 12 Oeste 0 -- -- 77
2020-10-26 20:00:00 10.4 5 Oeste 11 Oeste 0 -- -- 76
2020-10-26 19:00:00 10.6 2 Oeste 10 Oeste 0 -- -- 76
2020-10-26 18:00:00 11.5 7 Oeste 32 Oeste 0 -- -- 70
2020-10-26 17:00:00 12.2 8 Oeste 31 Oeste 0 -- -- 64
2020-10-26 16:00:00 12.8 9 Noroeste 31 Noroeste 0 -- -- 61
2020-10-26 15:00:00 12.7 21 Oeste 43 Oeste 0 -- -- 58
2020-10-26 14:00:00 13.8 16 Oeste 41 Oeste 0 -- -- 52
2020-10-26 13:00:00 12.8 21 Oeste 38 Oeste 0 -- -- 56
2020-10-26 12:00:00 12.1 19 Oeste 35 Oeste 0 -- -- 60
2020-10-26 11:00:00 10.6 18 Oeste 38 Noroeste 0 -- -- 63
2020-10-26 10:00:00 9.7 15 Oeste 26 Oeste 0 -- -- 69
2020-10-26 09:00:00 7.3 8 Noroeste 18 Oeste 0 -- -- 80
2020-10-26 08:00:00 6 6 Noroeste 20 Noroeste 0 -- -- 85
2020-10-26 07:00:00 6.1 10 Oeste 17 Noroeste 0 -- -- 85
2020-10-26 06:00:00 6.2 11 Oeste 22 Oeste 0 -- -- 85
2020-10-26 05:00:00 6.4 8 Oeste 15 Oeste 0 -- -- 86
2020-10-26 04:00:00 7.5 7 Oeste 18 Noroeste 0 -- -- 81
2020-10-26 03:00:00 8 5 Oeste 14 Noroeste 0 -- -- 83
2020-10-26 02:00:00 7.9 4 Oeste 11 Noroeste 0.2 -- -- 87
2020-10-26 01:00:00 8.1 6 Oeste 27 Noroeste 0 -- -- 83
2020-10-26 00:00:00 9.3 15 Noroeste 31 Noroeste 0 -- -- 75
2020-10-25 23:00:00 9.6 13 Oeste 24 Oeste 0 -- -- 75
2020-10-25 22:00:00 10.7 11 Oeste 23 Oeste 0 -- -- 74
2020-10-25 21:00:00 11.9 11 Oeste 34 Oeste 0 -- -- 81
2020-10-25 20:00:00 13.2 22 Oeste 41 Oeste 0 -- -- 72
2020-10-25 19:00:00 12.3 8 Oeste 24 Noroeste 0 -- -- 89
2020-10-25 18:00:00 12.8 15 Oeste 34 Oeste 0.4 -- -- 84
2020-10-25 17:00:00 13.7 9 Oeste 28 Oeste 2 -- -- 85
2020-10-25 16:00:00 15.4 5 Sur 21 Nordeste 0.4 -- -- 81
2020-10-25 15:00:00 17 5 Nordeste 11 Sudeste 0 -- -- 67
2020-10-25 14:00:00 17.4 6 Este 13 Nordeste 0 -- -- 60
2020-10-25 13:00:00 16.3 7 Este 10 Este 0 -- -- 65
2020-10-25 12:00:00 14.8 5 Sudeste 14 Este 0 -- -- 71
2020-10-25 11:00:00 13.9 6 Este 13 Este 0 -- -- 70
2020-10-25 10:00:00 11.5 6 Este 13 Este 0 -- -- 78
2020-10-25 09:00:00 10.5 5 Nordeste 13 Este 0 -- -- 84
2020-10-25 08:00:00 9.5 4 Sudeste 15 Sudoeste 0 -- -- 86
2020-10-25 07:00:00 8.9 0 Calma 13 Este 0 -- -- 87
2020-10-25 06:00:00 8.9 3 Este 7 Este 0 -- -- 87
2020-10-25 05:00:00 9.5 0 Calma 9 Sudoeste 0 -- -- 86
2020-10-25 04:00:00 9.3 2 Este 5 Nordeste 0 -- -- 86
2020-10-25 03:00:00 9.3 0 Calma 9 Sudoeste 0 -- -- 84
2020-10-25 02:00:00 9.8 2 Sur 6 Sudoeste 0 -- -- 82
2020-10-25 01:00:00 11.2 2 Noroeste 6 Sudeste 0 -- -- 78
2020-10-25 00:00:00 12.3 3 Sur 9 Sudeste 0 -- -- 70
2020-10-24 23:00:00 13 3 Sudoeste 19 Sudoeste 0 -- -- 68
2020-10-24 22:00:00 12.8 7 Sudoeste 14 Sudoeste 0 -- -- 69
2020-10-24 21:00:00 13.6 10 Sudoeste 17 Oeste 0 -- -- 65
2020-10-24 20:00:00 14 8 Sudoeste 19 Oeste 0 -- -- 65
2020-10-24 19:00:00 15 6 Oeste 20 Noroeste 0 -- -- 63
2020-10-24 18:00:00 16 10 Noroeste 27 Noroeste 0 -- -- 58
2020-10-24 17:00:00 16.7 14 Noroeste 24 Noroeste 0 -- -- 56
2020-10-24 16:00:00 16.6 17 Noroeste 30 Oeste 0 -- -- 56
2020-10-24 15:00:00 16.3 16 Noroeste 28 Noroeste 0 -- -- 57
2020-10-24 14:00:00 16.3 15 Noroeste 28 Noroeste 0 -- -- 58
2020-10-24 13:00:00 15.7 9 Noroeste 17 Noroeste 0 -- -- 58
2020-10-24 12:00:00 13.8 7 Noroeste 14 Oeste 0 -- -- 67
2020-10-24 11:00:00 11 6 Oeste 11 Oeste 0 -- -- 79
2020-10-24 10:00:00 7.7 0 Calma 5 Noroeste 0 -- -- 93
2020-10-24 09:00:00 6.2 0 Calma 11 Oeste 0 -- -- 93
2020-10-24 08:00:00 6.2 5 Oeste 8 Oeste 0 -- -- 92
2020-10-24 07:00:00 7.4 4 Oeste 14 Sudoeste 0 -- -- 90
2020-10-24 06:00:00 7 2 Sudoeste 9 Sudoeste 0 -- -- 93
2020-10-24 05:00:00 6.4 0 Calma 5 Sudoeste 0 -- -- 93
2020-10-24 04:00:00 7.2 3 Sudoeste 6 Sudoeste 0 -- -- 91
2020-10-24 03:00:00 7.8 2 Sudoeste 8 Sudoeste 0 -- -- 90
2020-10-24 02:00:00 8.4 3 Sudoeste 7 Sudoeste 0 -- -- 87
2020-10-24 01:00:00 9.2 3 Sudoeste 8 Sudoeste 0 -- -- 84
2020-10-24 00:00:00 10.5 3 Sudoeste 8 Sudoeste 0 -- -- 80
2020-10-23 23:00:00 12.5 4 Sudoeste 12 Oeste 0 -- -- 72
2020-10-23 22:00:00 13.6 3 Sudoeste 14 Oeste 0 -- -- 69
2020-10-23 21:00:00 14 5 Oeste 9 Oeste 0 -- -- 67
2020-10-23 20:00:00 14.5 3 Oeste 19 Oeste 0 -- -- 64
2020-10-23 19:00:00 15.4 9 Oeste 24 Oeste 0 -- -- 57
2020-10-23 18:00:00 16.9 16 Oeste 33 Oeste 0 -- -- 51
2020-10-23 17:00:00 17.3 15 Oeste 35 Noroeste 0 -- -- 50
2020-10-23 16:00:00 16.6 21 Oeste 41 Oeste 0 -- -- 52
2020-10-23 15:00:00 16.4 25 Noroeste 41 Oeste 0 -- -- 53
2020-10-23 14:00:00 16.8 23 Oeste 42 Noroeste 0 -- -- 54
2020-10-23 13:00:00 15.4 16 Noroeste 36 Noroeste 0 -- -- 64
2020-10-23 12:00:00 15.1 12 Noroeste 25 Noroeste 0.2 -- -- 73
2020-10-23 11:00:00 13.5 10 Noroeste 19 Oeste 0 -- -- 79
2020-10-23 10:00:00 12.3 10 Oeste 18 Oeste 0 -- -- 88
2020-10-23 09:00:00 11.2 4 Noroeste 9 Oeste 0 -- -- 97
2020-10-23 08:00:00 11.2 4 Oeste 9 Oeste 0 -- -- 97
2020-10-23 07:00:00 11.7 0 Calma 3 Oeste 0 -- -- 97
2020-10-23 06:00:00 11.9 0 Calma 6 Sudoeste 0.2 -- -- 97
2020-10-23 05:00:00 12.1 2 Sur 8 Oeste 0.6 -- -- 97
2020-10-23 04:00:00 12.1 0 Calma 7 Oeste 0 -- -- 96
2020-10-23 03:00:00 12.2 2 Oeste 5 Noroeste 0.2 -- -- 96
2020-10-23 02:00:00 12.4 2 Nordeste 6 Sudoeste 1.2 -- -- 95
2020-10-23 01:00:00 12.3 4 Oeste 10 Oeste 0.2 -- -- 95
2020-10-23 00:00:00 12.5 0 Calma 8 Sudoeste 0.2 -- -- 93
2020-10-22 23:00:00 12.8 3 Oeste 6 Oeste 0 -- -- 91
2020-10-22 22:00:00 13.4 3 Sudoeste 20 Oeste 1 -- -- 89
2020-10-22 21:00:00 14.3 10 Noroeste 19 Oeste 0 -- -- 82
2020-10-22 20:00:00 15.2 2 Oeste 6 Sudeste 0 -- -- 82
2020-10-22 19:00:00 17.1 4 Sudeste 8 Sudeste 0 -- -- 75
2020-10-22 18:00:00 17.2 2 Oeste 14 Noroeste 0 -- -- 78
2020-10-22 17:00:00 18.3 8 Oeste 18 Oeste 0 -- -- 66
2020-10-22 16:00:00 20.2 8 Sudeste 21 Sudeste 0 -- -- 52
2020-10-22 15:00:00 20.8 5 Sudeste 20 Nordeste 0 -- -- 49
2020-10-22 14:00:00 20.2 10 Este 28 Este 0 -- -- 59
2020-10-22 13:00:00 18.4 15 Este 25 Este 0 -- -- 65
2020-10-22 12:00:00 15.6 9 Este 21 Este 0 -- -- 75
2020-10-22 11:00:00 13.7 4 Nordeste 7 Norte 0 -- -- 81
2020-10-22 10:00:00 12.1 2 Noroeste 6 Norte 0 -- -- 85
2020-10-22 09:00:00 11.3 0 Calma 4 Norte 0 -- -- 87
2020-10-22 08:00:00 11.4 3 Norte 12 Nordeste 0 -- -- 85
2020-10-22 07:00:00 12.3 3 Nordeste 11 Este 0 -- -- 81
2020-10-22 06:00:00 12.6 3 Sur 10 Sur 0 -- -- 80
2020-10-22 05:00:00 12.7 6 Sudoeste 10 Sudoeste 0 -- -- 80
2020-10-22 04:00:00 12.2 5 Oeste 13 Oeste 0 -- -- 82
2020-10-22 03:00:00 11.8 5 Este 13 Oeste 0 -- -- 83
2020-10-22 02:00:00 12.6 3 Sudeste 15 Este 0 -- -- 79
2020-10-22 01:00:00 12.6 3 Sudeste 10 Este 0 -- -- 76
2020-10-22 00:00:00 12.5 3 Sudeste 10 Este 0 -- -- 79
2020-10-21 23:00:00 12 5 Sudeste 8 Este 0 -- -- 83
2020-10-21 22:00:00 13.3 2 Sudoeste 10 Sudoeste 0 -- -- 76
2020-10-21 21:00:00 15.1 6 Sudoeste 15 Sudoeste 0 -- -- 71
2020-10-21 20:00:00 16.5 6 Oeste 26 Noroeste 0 -- -- 66
2020-10-21 19:00:00 18.6 2 Sudoeste 6 Sudoeste 0 -- -- 58
2020-10-21 18:00:00 19.3 0 Calma 10 Noroeste 0 -- -- 56
2020-10-21 17:00:00 19.4 8 Noroeste 18 Noroeste 0 -- -- 55
2020-10-21 16:00:00 21.8 7 Sur 23 Sudeste 0 -- -- 43
2020-10-21 15:00:00 22.2 7 Sudeste 17 Sudeste 0 -- -- 42
2020-10-21 14:00:00 21.7 5 Sudeste 17 Este 0 -- -- 44
2020-10-21 13:00:00 22.1 9 Sur 23 Sudoeste 0 -- -- 41
2020-10-21 12:00:00 20.9 6 Sur 19 Sudeste 0 -- -- 48
2020-10-21 11:00:00 20 4 Sudeste 20 Este 0 -- -- 50
2020-10-21 10:00:00 17.9 9 Este 23 Sur 0 -- -- 56
2020-10-21 09:00:00 16.7 5 Sudeste 16 Sur 0 -- -- 58
2020-10-21 08:00:00 17.1 6 Sur 23 Sudoeste 0 -- -- 61
2020-10-21 07:00:00 18 12 Sudoeste 30 Sudoeste 0 -- -- 55
2020-10-21 06:00:00 17.2 5 Sur 26 Sudeste 0 -- -- 66
2020-10-21 05:00:00 15 5 Noroeste 10 Oeste 0 -- -- 85
2020-10-21 04:00:00 15.9 4 Este 17 Oeste 0 -- -- 83
2020-10-21 03:00:00 16.2 4 Noroeste 39 Nordeste 0 -- -- 81
2020-10-21 02:00:00 15.4 20 Este 51 Este 0.4 -- -- 88
2020-10-21 01:00:00 15.9 21 Este 44 Sudeste 0 -- -- 82
2020-10-21 00:00:00 16.6 19 Este 51 Este 0 -- -- 74
2020-10-20 23:00:00 15.7 27 Este 59 Este 0 -- -- 80
2020-10-20 22:00:00 16.1 33 Este 64 Sudeste 0 -- -- 78
2020-10-20 21:00:00 15.9 32 Este 53 Sudeste 0 -- -- 82
2020-10-20 20:00:00 16 23 Este 43 Este 0.6 -- -- 87
2020-10-20 19:00:00 16.9 22 Este 46 Este 0 -- -- 79
2020-10-20 18:00:00 16.6 22 Este 44 Este 0 -- -- 78
2020-10-20 17:00:00 16.6 22 Este 41 Sudeste 0 -- -- 75
2020-10-20 16:00:00 16.8 26 Este 48 Este 0 -- -- 70
2020-10-20 15:00:00 16.3 18 Este 43 Este 0 -- -- 74
2020-10-20 14:00:00 16.5 22 Este 40 Este 0 -- -- 73
2020-10-20 13:00:00 17.4 18 Este 31 Este 0 -- -- 64
2020-10-20 12:00:00 17.6 17 Este 31 Sudeste 0 -- -- 62
2020-10-20 11:00:00 17 15 Este 34 Este 0 -- -- 64
2020-10-20 10:00:00 16.4 13 Este 27 Sudeste 0 -- -- 66
2020-10-20 09:00:00 14.4 15 Este 33 Este 0 -- -- 80
2020-10-20 08:00:00 14.3 6 Nordeste 23 Este 0 -- -- 81
2020-10-20 07:00:00 14.2 8 Este 31 Este 0 -- -- 81
2020-10-20 06:00:00 14.1 13 Este 28 Este 0 -- -- 82
2020-10-20 05:00:00 14.3 7 Nordeste 25 Este 0 -- -- 80
2020-10-20 04:00:00 14.3 13 Este 36 Este 0 -- -- 80
2020-10-20 03:00:00 14.4 23 Este 41 Este 0 -- -- 78
2020-10-20 02:00:00 15.1 17 Este 41 Este 0 -- -- 72
2020-10-20 01:00:00 16 14 Este 42 Este 0 -- -- 67
2020-10-20 00:00:00 16.8 23 Este 37 Este 0 -- -- 64
2020-10-19 23:00:00 17.3 16 Este 37 Este 0 -- -- 62
2020-10-19 22:00:00 17.6 22 Este 42 Este 0 -- -- 60
2020-10-19 21:00:00 17.3 3 Nordeste 18 Nordeste 0 -- -- 56
2020-10-19 20:00:00 18 9 Este 28 Este 0 -- -- 52
2020-10-19 19:00:00 18.6 12 Este 33 Nordeste 0 -- -- 50
2020-10-19 18:00:00 19.6 16 Este 33 Este 0 -- -- 49
2020-10-19 17:00:00 20.1 22 Este 48 Este 0 -- -- 46
2020-10-19 16:00:00 19.5 18 Este 39 Este 0 -- -- 50
2020-10-19 15:00:00 18.3 18 Este 46 Este 0 -- -- 56
2020-10-19 14:00:00 16.4 21 Este 42 Este 0 -- -- 62
2020-10-19 13:00:00 15.2 22 Este 44 Este 0 -- -- 66
2020-10-19 12:00:00 13.6 17 Este 40 Este 0 -- -- 72
2020-10-19 11:00:00 11.3 14 Este 27 Este 0 -- -- 74
2020-10-19 10:00:00 8.6 4 Sudeste 26 Este 0 -- -- 79
2020-10-19 09:00:00 7.7 14 Este 28 Este 0 -- -- 78
2020-10-19 08:00:00 7.8 9 Este 19 Sudeste 0 -- -- 76
2020-10-19 07:00:00 8.3 5 Sudeste 25 Este 0 -- -- 74
2020-10-19 06:00:00 8.4 8 Este 19 Este 0 -- -- 74
2020-10-19 05:00:00 8.8 5 Este 25 Este 0 -- -- 72
2020-10-19 04:00:00 9.3 9 Este 22 Sudeste 0 -- -- 72
2020-10-19 03:00:00 8 3 Norte 5 Nordeste 0 -- -- 84
2020-10-19 02:00:00 8.6 0 Calma 6 Sudeste 0 -- -- 82
2020-10-19 01:00:00 9.3 3 Sudeste 6 Sudeste 0 -- -- 81
2020-10-19 00:00:00 10.1 0 Calma 4 Este 0 -- -- 76
2020-10-18 23:00:00 10.7 0 Calma 4 Sudeste 0 -- -- 74
2020-10-18 22:00:00 12 0 Calma 4 Oeste 0 -- -- 69
2020-10-18 21:00:00 14.2 2 Sudeste 10 Este 0 -- -- 60
2020-10-18 20:00:00 16.5 3 Sudeste 9 Este 0 -- -- 52
2020-10-18 19:00:00 19.1 4 Este 14 Este 0 -- -- 44
2020-10-18 18:00:00 21.1 6 Sudeste 16 Sudeste 0 -- -- 38
2020-10-18 17:00:00 21.8 6 Sudeste 13 Este 0 -- -- 35
2020-10-18 16:00:00 21.5 4 Oeste 6 Sudoeste 0 -- -- 37
2020-10-18 15:00:00 20.8 4 Sudoeste 10 Sudoeste 0 -- -- 36
2020-10-18 14:00:00 18.7 5 Noroeste 10 Oeste 0 -- -- 42
2020-10-18 13:00:00 16.3 5 Noroeste 10 Noroeste 0 -- -- 56
2020-10-18 12:00:00 13.2 6 Noroeste 12 Noroeste 0 -- -- 68
2020-10-18 11:00:00 8.6 5 Oeste 8 Oeste 0 -- -- 87
2020-10-18 10:00:00 5.5 2 Noroeste 6 Oeste 0 -- -- 96
2020-10-18 09:00:00 3.8 3 Oeste 9 Oeste 0 -- -- 95
2020-10-18 08:00:00 3.8 4 Oeste 8 Oeste 0 -- -- 94
2020-10-18 07:00:00 3.7 2 Sudoeste 6 Oeste 0 -- -- 94
2020-10-18 06:00:00 3.9 3 Oeste 5 Oeste 0 -- -- 94
2020-10-18 05:00:00 3.9 2 Oeste 5 Oeste 0 -- -- 93
2020-10-18 04:00:00 4.3 2 Oeste 4 Oeste 0 -- -- 93
2020-10-18 03:00:00 5 2 Oeste 5 Oeste 0 -- -- 92
2020-10-18 02:00:00 5.1 2 Oeste 3 Sudoeste 0 -- -- 90
2020-10-18 01:00:00 6.3 0 Calma 4 Sudoeste 0 -- -- 87
2020-10-18 00:00:00 7.4 3 Oeste 5 Sudoeste 0 -- -- 83
2020-10-17 23:00:00 8.4 3 Sudoeste 7 Sudoeste 0 -- -- 79
2020-10-17 22:00:00 9.5 0 Calma 4 Oeste 0 -- -- 75
2020-10-17 21:00:00 11.3 2 Sudoeste 9 Sudoeste 0 -- -- 67
2020-10-17 20:00:00 13.7 4 Sudoeste 7 Sudoeste 0 -- -- 59
2020-10-17 19:00:00 16.9 4 Oeste 18 Oeste 0 -- -- 48
2020-10-17 18:00:00 17.9 11 Oeste 24 Noroeste 0 -- -- 43
2020-10-17 17:00:00 18.6 6 Noroeste 16 Noroeste 0 -- -- 45
2020-10-17 16:00:00 17.3 3 Oeste 13 Noroeste 0 -- -- 48
2020-10-17 15:00:00 15.9 4 Norte 8 Oeste 0 -- -- 50
2020-10-17 14:00:00 14.7 0 Calma 8 Sudoeste 0 -- -- 50
2020-10-17 13:00:00 12.4 3 Sudoeste 7 Sudoeste 0 -- -- 60
2020-10-17 12:00:00 9.4 0 Calma 4 Noroeste 0 -- -- 75
2020-10-17 11:00:00 5.1 2 Noroeste 4 Oeste 0 -- -- 99
2020-10-17 10:00:00 2.1 0 Calma 4 Sudoeste 0 -- -- 99
2020-10-17 09:00:00 0.8 0 Calma 4 Sudoeste 0 -- -- 99
2020-10-17 08:00:00 0.8 0 Calma 2 Sudoeste 0 -- -- 97
2020-10-17 07:00:00 1.1 0 Calma 2 Nordeste 0 -- -- 97
2020-10-17 06:00:00 1.6 0 Calma 3 Sudoeste 0 -- -- 96
2020-10-17 05:00:00 2 3 Sudoeste 5 Sudoeste 0 -- -- 95
2020-10-17 04:00:00 2.5 0 Calma 4 Sudoeste 0 -- -- 95
2020-10-17 03:00:00 2.9 3 Sudoeste 5 Sudoeste 0 -- -- 94
2020-10-17 02:00:00 3.7 0 Calma 3 Noroeste 0 -- -- 94
2020-10-17 01:00:00 4.5 0 Calma 3 Noroeste 0 -- -- 92
2020-10-17 00:00:00 5.4 0 Calma 4 Noroeste 0 -- -- 89
2020-10-16 23:00:00 6.5 3 Nordeste 12 Sudoeste 0 -- -- 86
2020-10-16 22:00:00 7.8 7 Sudoeste 16 Sudoeste 0 -- -- 81
2020-10-16 21:00:00 8.9 0 Calma 6 Oeste 0 -- -- 79
2020-10-16 20:00:00 11 5 Oeste 13 Sudoeste 0 -- -- 70
2020-10-16 19:00:00 12.6 5 Oeste 14 Oeste 0 -- -- 64
2020-10-16 18:00:00 13.6 8 Oeste 17 Oeste 0 -- -- 57
2020-10-16 17:00:00 13.7 8 Oeste 18 Oeste 0 -- -- 59
2020-10-16 16:00:00 12.2 10 Oeste 24 Oeste 0 -- -- 66
2020-10-16 15:00:00 11.9 15 Oeste 24 Sudoeste 0 -- -- 66
2020-10-16 14:00:00 12.2 13 Oeste 24 Oeste 0 -- -- 68
2020-10-16 13:00:00 12.1 11 Oeste 24 Oeste 0 -- -- 66
2020-10-16 12:00:00 9.4 9 Oeste 18 Oeste 0 -- -- 78
2020-10-16 11:00:00 8 6 Oeste 14 Oeste 0 -- -- 88
2020-10-16 10:00:00 6.9 5 Noroeste 12 Oeste 0 -- -- 94
2020-10-16 09:00:00 5.4 4 Noroeste 10 Oeste 0 -- -- 96
2020-10-16 08:00:00 5.4 3 Noroeste 7 Oeste 0 -- -- 95
2020-10-16 07:00:00 5.7 3 Oeste 7 Oeste 0 -- -- 94
2020-10-16 06:00:00 5.8 3 Oeste 8 Oeste 0 -- -- 92
2020-10-16 05:00:00 6.6 4 Oeste 8 Noroeste 0 -- -- 90
2020-10-16 04:00:00 6.9 5 Oeste 8 Oeste 0 -- -- 90
2020-10-16 03:00:00 6.8 4 Noroeste 16 Oeste 0 -- -- 88
2020-10-16 02:00:00 6.6 8 Sudoeste 14 Oeste 0 -- -- 89
2020-10-16 01:00:00 6.1 5 Oeste 10 Oeste 0 -- -- 88
2020-10-16 00:00:00 6.2 4 Oeste 10 Oeste 0 -- -- 85
2020-10-15 23:00:00 7 8 Oeste 15 Oeste 0 -- -- 82
2020-10-15 22:00:00 7.8 12 Oeste 19 Oeste 0 -- -- 79
2020-10-15 21:00:00 8.2 6 Oeste 18 Noroeste 0 -- -- 80
2020-10-15 20:00:00 8.7 13 Noroeste 24 Noroeste 0 -- -- 75
2020-10-15 19:00:00 9.5 10 Oeste 17 Oeste 0 -- -- 75
2020-10-15 18:00:00 9.9 11 Oeste 24 Oeste 0 -- -- 73
2020-10-15 17:00:00 10.2 10 Oeste 19 Sudoeste 0 -- -- 70
2020-10-15 16:00:00 9.3 10 Norte 27 Noroeste 0 -- -- 74
2020-10-15 15:00:00 10.7 2 Noroeste 17 Noroeste 0 -- -- 71
2020-10-15 14:00:00 10.2 12 Noroeste 20 Noroeste 0 -- -- 75
2020-10-15 13:00:00 9.4 10 Noroeste 23 Noroeste 0 -- -- 79
2020-10-15 12:00:00 9 6 Noroeste 26 Oeste 0.2 -- -- 82
2020-10-15 11:00:00 10.1 14 Oeste 29 Noroeste 0 -- -- 77
2020-10-15 10:00:00 9.7 8 Noroeste 25 Oeste 0 -- -- 85
2020-10-15 09:00:00 7.9 9 Oeste 14 Noroeste 0 -- -- 93
2020-10-15 08:00:00 7.4 3 Noroeste 15 Noroeste 0 -- -- 94
2020-10-15 07:00:00 7 5 Noroeste 13 Noroeste 0 -- -- 94
2020-10-15 06:00:00 6.8 6 Oeste 16 Oeste 0 -- -- 92
2020-10-15 05:00:00 7 9 Oeste 17 Oeste 0 -- -- 92
2020-10-15 04:00:00 7.6 4 Noroeste 15 Oeste 0 -- -- 92
2020-10-15 03:00:00 7 3 Noroeste 10 Noroeste 0 -- -- 94
2020-10-15 02:00:00 6.9 4 Oeste 14 Oeste 0 -- -- 92
2020-10-15 01:00:00 7.6 9 Oeste 19 Sudoeste 0 -- -- 92
2020-10-15 00:00:00 8 6 Noroeste 16 Oeste 0 -- -- 91
2020-10-14 23:00:00 8.5 12 Oeste 23 Oeste 0 -- -- 89
2020-10-14 22:00:00 8.7 10 Oeste 20 Sudoeste 0.2 -- -- 91
2020-10-14 21:00:00 8.7 8 Oeste 17 Oeste 0.2 -- -- 89
2020-10-14 20:00:00 8.8 6 Sudoeste 22 Oeste 0 -- -- 91
2020-10-14 19:00:00 8.7 12 Oeste 25 Oeste 0.6 -- -- 90
2020-10-14 18:00:00 9 14 Oeste 30 Oeste 0.2 -- -- 86
2020-10-14 17:00:00 9.9 17 Oeste 33 Oeste 0 -- -- 81
2020-10-14 16:00:00 10.1 12 Oeste 37 Noroeste 0.4 -- -- 87
2020-10-14 15:00:00 10.6 19 Noroeste 33 Noroeste 0.2 -- -- 77
2020-10-14 14:00:00 10.8 13 Noroeste 32 Noroeste 1.2 -- -- 83
2020-10-14 13:00:00 12.7 20 Noroeste 41 Noroeste 0 -- -- 63
2020-10-14 12:00:00 12.5 13 Noroeste 42 Oeste 0 -- -- 64
2020-10-14 11:00:00 11.9 17 Oeste 33 Sudoeste 0 -- -- 68
2020-10-14 10:00:00 10 12 Oeste 21 Sudoeste 0 -- -- 82
2020-10-14 09:00:00 9.2 14 Oeste 27 Oeste 0 -- -- 82
2020-10-14 08:00:00 9.3 12 Oeste 23 Oeste 0.2 -- -- 84
2020-10-14 07:00:00 10 10 Oeste 19 Oeste 0 -- -- 78
2020-10-14 06:00:00 10.3 9 Oeste 17 Oeste 0 -- -- 76
2020-10-14 05:00:00 10.4 10 Oeste 18 Oeste 0 -- -- 74
2020-10-14 04:00:00 10.4 9 Oeste 15 Oeste 0 -- -- 75
2020-10-14 03:00:00 10.6 9 Oeste 23 Oeste 0 -- -- 74
2020-10-14 02:00:00 10.7 8 Oeste 16 Oeste 0 -- -- 78
2020-10-14 01:00:00 11.1 5 Oeste 13 Oeste 0 -- -- 87
2020-10-14 00:00:00 11.5 5 Oeste 16 Sudoeste 0 -- -- 84
2020-10-13 23:00:00 11.3 10 Sudoeste 17 Sudoeste 0 -- -- 86
2020-10-13 22:00:00 12.2 9 Sudoeste 18 Oeste 0 -- -- 78
2020-10-13 21:00:00 12.4 8 Noroeste 13 Noroeste 0 -- -- 74
2020-10-13 20:00:00 12.8 9 Noroeste 18 Noroeste 0 -- -- 71
2020-10-13 19:00:00 13.3 7 Norte 17 Norte 0 -- -- 72
2020-10-13 18:00:00 14.5 9 Norte 18 Oeste 0 -- -- 67
2020-10-13 17:00:00 15.7 9 Noroeste 24 Noroeste 0 -- -- 63
2020-10-13 16:00:00 16.4 10 Noroeste 27 Oeste 0 -- -- 62
2020-10-13 15:00:00 17.2 13 Noroeste 24 Noroeste 0 -- -- 59
2020-10-13 14:00:00 16.3 11 Noroeste 26 Noroeste 0 -- -- 65
2020-10-13 13:00:00 15 10 Noroeste 26 Noroeste 0 -- -- 72
2020-10-13 12:00:00 14.9 13 Oeste 22 Noroeste 0 -- -- 76
2020-10-13 11:00:00 14.3 13 Oeste 22 Oeste 0 -- -- 86
2020-10-13 10:00:00 -- -- -- -- -- -- -- -- --
2020-10-13 09:00:00 11.5 5 Noroeste 10 Noroeste 0 -- -- 94
2020-10-13 08:00:00 11.4 3 Noroeste 10 Noroeste 0 -- -- 92
2020-10-13 07:00:00 11.6 8 Oeste 19 Oeste 0 -- -- 91
2020-10-13 06:00:00 11.9 8 Noroeste 14 Oeste 1.2 -- -- 91
2020-10-13 05:00:00 12.2 6 Oeste 23 Oeste 0 -- -- 88
2020-10-13 04:00:00 -- -- -- -- -- -- -- -- --
2020-10-13 03:00:00 12.1 6 Oeste 21 Sudoeste 0 -- -- 83
2020-10-13 02:00:00 12.4 9 Oeste 23 Sudoeste 0.2 -- -- 84
2020-10-13 01:00:00 -- -- -- -- -- -- -- -- --
2020-10-13 00:00:00 13.3 14 Sudoeste 22 Oeste 0 -- -- 76
2020-10-12 23:00:00 13.7 11 Oeste 21 Oeste 0 -- -- 72
2020-10-12 22:00:00 13.2 0 Calma 5 Noroeste 0 -- -- 75
2020-10-12 21:00:00 13.8 3 Oeste 9 Sudoeste 0 -- -- 69
2020-10-12 20:00:00 14.1 3 Oeste 8 Oeste 0 -- -- 64
2020-10-12 19:00:00 15 6 Oeste 17 Noroeste 0 -- -- 58
2020-10-12 18:00:00 -- -- -- -- -- -- -- -- --
2020-10-12 17:00:00 16.5 12 Noroeste 25 Noroeste 0 -- -- 48
2020-10-12 16:00:00 15.8 13 Noroeste 29 Noroeste 0 -- -- 51
2020-10-12 15:00:00 14.9 12 Noroeste 27 Oeste 0 -- -- 55
2020-10-12 14:00:00 14.6 13 Oeste 23 Oeste 0 -- -- 59
2020-10-12 13:00:00 13 13 Oeste 23 Oeste 0 -- -- 68
2020-10-12 12:00:00 11.7 13 Oeste 26 Oeste 0 -- -- 75
2020-10-12 11:00:00 10.7 13 Oeste 22 Oeste 0 -- -- 78
2020-10-12 10:00:00 9.7 12 Oeste 26 Oeste 0 -- -- 82
2020-10-12 09:00:00 8.9 13 Oeste 26 Sudoeste 0.2 -- -- 84
2020-10-12 08:00:00 9 17 Oeste 26 Sudoeste 0 -- -- 83
2020-10-12 07:00:00 8.2 8 Oeste 17 Oeste 0 -- -- 92
2020-10-12 06:00:00 8.3 10 Oeste 19 Oeste 0 -- -- 92
2020-10-12 05:00:00 8.4 7 Noroeste 28 Oeste 0 -- -- 93
2020-10-12 04:00:00 -- -- -- -- -- -- -- -- --
2020-10-12 03:00:00 8.8 11 Oeste 23 Oeste 0.6 -- -- 94
2020-10-12 02:00:00 9.2 13 Oeste 26 Oeste 0.2 -- -- 90
2020-10-12 01:00:00 8.9 11 Oeste 22 Oeste 0.4 -- -- 92
2020-10-12 00:00:00 9.6 8 Oeste 21 Oeste 0.4 -- -- 88
2020-10-11 23:00:00 10 13 Oeste 25 Oeste 0.2 -- -- 83
2020-10-11 22:00:00 9.8 11 Noroeste 24 Noroeste 0 -- -- 86
2020-10-11 21:00:00 -- -- -- -- -- -- -- -- --
2020-10-11 20:00:00 -- -- -- -- -- -- -- -- --
2020-10-11 19:00:00 10.6 12 Noroeste 39 Oeste 0.2 -- -- 86
2020-10-11 18:00:00 12.2 14 Noroeste 27 Noroeste 0 -- -- 70
2020-10-11 17:00:00 11.6 11 Noroeste 34 Oeste 0 -- -- 80
2020-10-11 16:00:00 12.9 15 Noroeste 32 Noroeste 0 -- -- 71
2020-10-11 15:00:00 12.3 15 Oeste 27 Oeste 0.2 -- -- 76
2020-10-11 14:00:00 12 15 Oeste 29 Noroeste 0 -- -- 75
2020-10-11 13:00:00 11.6 12 Oeste 24 Oeste 0 -- -- 77
2020-10-11 12:00:00 11 10 Oeste 24 Sudoeste 0 -- -- 75
2020-10-11 11:00:00 10.9 11 Oeste 22 Oeste 0 -- -- 72
2020-10-11 10:00:00 10.9 13 Oeste 22 Sudoeste 0 -- -- 70
2020-10-11 09:00:00 9.3 13 Oeste 22 Sudoeste 0 -- -- 77
2020-10-11 08:00:00 9.8 10 Sudoeste 21 Sudoeste 0 -- -- 76
2020-10-11 07:00:00 9.7 12 Oeste 23 Oeste 0 -- -- 79
2020-10-11 06:00:00 10.4 14 Oeste 30 Sudoeste 0 -- -- 78
2020-10-11 05:00:00 10.7 15 Oeste 26 Oeste 0 -- -- 75
2020-10-11 04:00:00 10.7 9 Oeste 23 Noroeste 0 -- -- 75
2020-10-11 03:00:00 10.9 6 Noroeste 19 Oeste 0 -- -- 78
2020-10-11 02:00:00 11.2 7 Noroeste 17 Noroeste 0 -- -- 82
2020-10-11 01:00:00 11.4 10 Noroeste 22 Noroeste 0 -- -- 78
2020-10-11 00:00:00 11.3 6 Noroeste 22 Noroeste 0 -- -- 87
2020-10-10 23:00:00 11.6 9 Oeste 19 Oeste 0 -- -- 86
2020-10-10 22:00:00 12.2 5 Oeste 11 Oeste 0 -- -- 75
2020-10-10 21:00:00 12.2 5 Oeste 12 Oeste 0 -- -- 75
2020-10-10 20:00:00 13.3 5 Oeste 24 Noroeste 0 -- -- 69
2020-10-10 19:00:00 14.7 10 Noroeste 23 Noroeste 0 -- -- 62
2020-10-10 18:00:00 15.6 8 Noroeste 25 Noroeste 0 -- -- 59
2020-10-10 17:00:00 16.9 13 Noroeste 28 Sudoeste 0 -- -- 55
2020-10-10 16:00:00 16.2 11 Noroeste 32 Noroeste 0 -- -- 59
2020-10-10 15:00:00 16.2 16 Noroeste 30 Oeste 0 -- -- 63
2020-10-10 14:00:00 15 13 Noroeste 26 Noroeste 0 -- -- 70
2020-10-10 13:00:00 15.2 7 Noroeste 24 Noroeste 0 -- -- 74
2020-10-10 12:00:00 15.8 11 Oeste 22 Oeste 0 -- -- 78
2020-10-10 11:00:00 16.3 10 Oeste 18 Oeste 0 -- -- 72
2020-10-10 10:00:00 14.5 9 Oeste 15 Sudoeste 0 -- -- 81
2020-10-10 09:00:00 13.4 4 Oeste 10 Oeste 0 -- -- 86
2020-10-10 08:00:00 13.8 5 Oeste 14 Oeste 0 -- -- 82
2020-10-10 07:00:00 13.4 3 Oeste 16 Oeste 0 -- -- 84
2020-10-10 06:00:00 13.4 10 Sudoeste 19 Oeste 0 -- -- 83
2020-10-10 05:00:00 13.6 9 Oeste 18 Oeste 0 -- -- 81
2020-10-10 04:00:00 14 7 Oeste 13 Sudoeste 0 -- -- 79
2020-10-10 03:00:00 15.1 7 Noroeste 16 Noroeste 0 -- -- 78
2020-10-10 02:00:00 15.5 7 Noroeste 17 Oeste 0 -- -- 80
2020-10-10 01:00:00 15.6 6 Oeste 14 Oeste 0 -- -- 79
2020-10-10 00:00:00 15.5 6 Oeste 14 Sudoeste 0 -- -- 81
2020-10-09 23:00:00 15.9 5 Oeste 9 Oeste 0 -- -- 78
2020-10-09 22:00:00 17.2 6 Oeste 12 Oeste 0 -- -- 73
2020-10-09 21:00:00 17.5 6 Oeste 13 Noroeste 0 -- -- 72
2020-10-09 20:00:00 18.4 7 Oeste 12 Noroeste 0 -- -- 69
2020-10-09 19:00:00 19.5 6 Noroeste 15 Noroeste 0 -- -- 66
2020-10-09 18:00:00 21.5 10 Noroeste 18 Oeste 0 -- -- 59
2020-10-09 17:00:00 22.8 9 Oeste 20 Noroeste 0 -- -- 55
2020-10-09 16:00:00 22.6 9 Oeste 18 Oeste 0 -- -- 58
2020-10-09 15:00:00 22.2 10 Oeste 19 Oeste 0 -- -- 62
2020-10-09 14:00:00 21.2 6 Noroeste 17 Oeste 0 -- -- 66
2020-10-09 13:00:00 19.3 8 Oeste 16 Sudoeste 0 -- -- 73
2020-10-09 12:00:00 15.8 9 Sudoeste 16 Sudoeste 0 -- -- 87
2020-10-09 11:00:00 13.7 8 Oeste 15 Oeste 0 -- -- 96
2020-10-09 10:00:00 12.2 6 Oeste 12 Sudoeste 0 -- -- 98
2020-10-09 09:00:00 9.5 2 Noroeste 4 Noroeste 0 -- -- 97
2020-10-09 08:00:00 9.4 0 Calma 7 Oeste 0 -- -- 96
2020-10-09 07:00:00 9.6 3 Oeste 5 Noroeste 0 -- -- 95
2020-10-09 06:00:00 10.1 0 Calma 4 Noroeste 0 -- -- 95
2020-10-09 05:00:00 10.6 2 Oeste 6 Noroeste 0 -- -- 95
2020-10-09 04:00:00 10.9 2 Oeste 4 Oeste 0 -- -- 94
2020-10-09 03:00:00 11.5 3 Oeste 6 Oeste 0 -- -- 94
2020-10-09 02:00:00 11.8 2 Sudoeste 4 Sudoeste 0 -- -- 91
2020-10-09 01:00:00 12.4 4 Sudoeste 5 Sudoeste 0 -- -- 91
2020-10-09 00:00:00 13.1 0 Calma 7 Sudoeste 0 -- -- 90
2020-10-08 23:00:00 13.8 4 Sudoeste 9 Sudoeste 0 -- -- 86
2020-10-08 22:00:00 15.5 2 Sur 8 Este 0 -- -- 79
2020-10-08 21:00:00 17 5 Este 8 Este 0 -- -- 75
2020-10-08 20:00:00 19 0 Calma 9 Sudeste 0 -- -- 67
2020-10-08 19:00:00 20.2 6 Sudeste 14 Este 0 -- -- 61
2020-10-08 18:00:00 20.8 6 Este 21 Este 0 -- -- 60
2020-10-08 17:00:00 20.9 10 Este 22 Sudeste 0 -- -- 59
2020-10-08 16:00:00 21.2 10 Este 21 Este 0 -- -- 59
2020-10-08 15:00:00 21.1 11 Este 18 Este 0 -- -- 59
2020-10-08 14:00:00 19.6 9 Este 20 Este 0 -- -- 64
2020-10-08 13:00:00 18.5 9 Este 18 Este 0 -- -- 68
2020-10-08 12:00:00 16 4 Este 11 Nordeste 0 -- -- 80
2020-10-08 11:00:00 12.2 0 Calma 5 Este 0 -- -- 98
2020-10-08 10:00:00 9.6 0 Calma 2 Norte 0 -- -- 98
2020-10-08 09:00:00 8.4 0 Calma 5 Sudoeste 0 -- -- 97
2020-10-08 08:00:00 8.4 0 Calma 4 Oeste 0 -- -- 96
2020-10-08 07:00:00 9 3 Sudoeste 5 Sudoeste 0 -- -- 95
2020-10-08 06:00:00 9.4 0 Calma 6 Oeste 0 -- -- 94
2020-10-08 05:00:00 10 2 Sudoeste 8 Sudoeste 0 -- -- 93
2020-10-08 04:00:00 10.7 3 Sudoeste 5 Sudoeste 0 -- -- 92
2020-10-08 03:00:00 11.5 2 Sudeste 4 Sudoeste 0 -- -- 92
2020-10-08 02:00:00 11.9 0 Calma 4 Sudeste 0 -- -- 90
2020-10-08 01:00:00 12.6 0 Calma 4 Sudoeste 0 -- -- 88
2020-10-08 00:00:00 13.6 0 Calma 4 Este 0 -- -- 86
2020-10-07 23:00:00 14.7 0 Calma 8 Nordeste 0 -- -- 83
2020-10-07 22:00:00 15.6 3 Norte 6 Sudeste 0 -- -- 81
2020-10-07 21:00:00 17.2 2 Sur 12 Sudeste 0 -- -- 74
2020-10-07 20:00:00 18.7 0 Calma 14 Noroeste 0 -- -- 69
2020-10-07 19:00:00 20.3 6 Norte 21 Norte 0 -- -- 64
2020-10-07 18:00:00 22.3 8 Nordeste 17 Noroeste 0 -- -- 57
2020-10-07 17:00:00 22.7 11 Noroeste 22 Oeste 0 -- -- 52
2020-10-07 16:00:00 23.1 10 Oeste 21 Oeste 0 -- -- 55
2020-10-07 15:00:00 22.2 10 Noroeste 22 Oeste 0 -- -- 59
2020-10-07 14:00:00 20.7 8 Noroeste 18 Oeste 0 -- -- 67
2020-10-07 13:00:00 18.9 12 Noroeste 27 Oeste 0 -- -- 73
2020-10-07 12:00:00 18.2 10 Noroeste 19 Noroeste 0 -- -- 68
2020-10-07 11:00:00 17.1 9 Oeste 25 Oeste 0 -- -- 71
2020-10-07 10:00:00 15.6 9 Oeste 19 Oeste 0 -- -- 76
2020-10-07 09:00:00 14.7 10 Oeste 23 Sudoeste 0 -- -- 77
2020-10-07 08:00:00 13.7 4 Noroeste 15 Sudoeste 0 -- -- 83
2020-10-07 07:00:00 14 9 Oeste 15 Oeste 0 -- -- 82
2020-10-07 06:00:00 13.5 6 Oeste 10 Oeste 0 -- -- 89
2020-10-07 05:00:00 13.2 4 Oeste 9 Oeste 0 -- -- 92
2020-10-07 04:00:00 13.1 3 Oeste 9 Sudoeste 0 -- -- 93
2020-10-07 03:00:00 12.7 0 Calma 4 Oeste 0 -- -- 93
2020-10-07 02:00:00 13.3 5 Sudoeste 11 Sudoeste 0 -- -- 93
2020-10-07 01:00:00 13.4 2 Sudoeste 8 Sudoeste 0 -- -- 91
2020-10-07 00:00:00 14.3 0 Calma 6 Sudoeste 0 -- -- 89
2020-10-06 23:00:00 15.3 0 Calma 8 Sudoeste 0 -- -- 86
2020-10-06 22:00:00 16.3 3 Sur 6 Sudoeste 0 -- -- 83
2020-10-06 21:00:00 17.8 0 Calma 6 Oeste 0 -- -- 78
2020-10-06 20:00:00 19.7 0 Calma 6 Sudoeste 0 -- -- 71
2020-10-06 19:00:00 20.9 3 Este 7 Sudeste 0 -- -- 66
2020-10-06 18:00:00 21.8 3 Sudoeste 15 Norte 0 -- -- 61
2020-10-06 17:00:00 21.8 10 Noroeste 20 Noroeste 0 -- -- 62
2020-10-06 16:00:00 21.9 12 Noroeste 35 Oeste 0 -- -- 61
2020-10-06 15:00:00 22.4 23 Noroeste 46 Oeste 0 -- -- 58
2020-10-06 14:00:00 21.7 26 Oeste 46 Oeste 0 -- -- 60
2020-10-06 13:00:00 20.6 25 Noroeste 51 Noroeste 0 -- -- 63
2020-10-06 12:00:00 19.9 18 Noroeste 35 Oeste 0 -- -- 67
2020-10-06 11:00:00 18.1 11 Oeste 30 Oeste 0 -- -- 72
2020-10-06 10:00:00 16.5 12 Oeste 22 Oeste 0 -- -- 77
2020-10-06 09:00:00 15.2 12 Oeste 22 Oeste 0 -- -- 81
2020-10-06 08:00:00 13.5 0 Calma 13 Oeste 0 -- -- 76
2020-10-06 07:00:00 12.5 5 Sudoeste 10 Oeste 0 -- -- 84
2020-10-06 06:00:00 12.2 0 Calma 9 Sur 0 -- -- 79
2020-10-06 05:00:00 12.2 2 Oeste 9 Noroeste 0 -- -- 79
2020-10-06 04:00:00 12.2 2 Norte 4 Norte 0 -- -- 78
2020-10-06 03:00:00 11.9 0 Calma 4 Oeste 0 -- -- 78
2020-10-06 02:00:00 11.8 0 Calma 5 Sudeste 0 -- -- 76
2020-10-06 01:00:00 11.6 2 Este 6 Este 0 -- -- 75
2020-10-06 00:00:00 11.9 0 Calma 7 Sudoeste 0 -- -- 76
2020-10-05 23:00:00 12.1 2 Sudoeste 6 Oeste 0 -- -- 76
2020-10-05 22:00:00 12.9 0 Calma 3 Sudoeste 0 -- -- 70
2020-10-05 21:00:00 14.5 2 Este 13 Sudoeste 0 -- -- 57
2020-10-05 20:00:00 17 8 Oeste 21 Sudoeste 0 -- -- 46
2020-10-05 19:00:00 18.7 11 Oeste 31 Oeste 0 -- -- 40
2020-10-05 18:00:00 19.3 16 Oeste 37 Oeste 0 -- -- 40
2020-10-05 17:00:00 19.7 17 Oeste 38 Oeste 0 -- -- 40
2020-10-05 16:00:00 18.9 19 Noroeste 37 Oeste 0 -- -- 43
2020-10-05 15:00:00 18.3 17 Noroeste 37 Oeste 0 -- -- 47
2020-10-05 14:00:00 16.9 18 Noroeste 32 Noroeste 0 -- -- 50
2020-10-05 13:00:00 15.7 16 Noroeste 33 Oeste 0 -- -- 58
2020-10-05 12:00:00 14.5 15 Noroeste 31 Noroeste 0 -- -- 63
2020-10-05 11:00:00 12.6 16 Oeste 30 Oeste 0 -- -- 69
2020-10-05 10:00:00 10.8 8 Oeste 19 Sudoeste 0 -- -- 79
2020-10-05 09:00:00 9.8 3 Noroeste 16 Oeste 0 -- -- 81
2020-10-05 08:00:00 9.7 12 Oeste 26 Oeste 0 -- -- 80
2020-10-05 07:00:00 9.7 14 Oeste 23 Oeste 0 -- -- 79
2020-10-05 06:00:00 9.5 8 Oeste 14 Oeste 0 -- -- 82
2020-10-05 05:00:00 9.4 6 Oeste 13 Sudoeste 0 -- -- 86
2020-10-05 04:00:00 8.6 5 Oeste 11 Oeste 0 -- -- 91
2020-10-05 03:00:00 7.8 4 Oeste 8 Oeste 0 -- -- 94
2020-10-05 02:00:00 7.4 2 Noroeste 6 Sur 0 -- -- 93
2020-10-05 01:00:00 8.5 3 Oeste 6 Oeste 0 -- -- 90
2020-10-05 00:00:00 9.1 2 Oeste 8 Sudoeste 0 -- -- 87
2020-10-04 23:00:00 9.8 0 Calma 11 Oeste 0 -- -- 83
2020-10-04 22:00:00 11.4 10 Oeste 17 Sudoeste 0 -- -- 70
2020-10-04 21:00:00 11.5 4 Oeste 10 Oeste 0 -- -- 83
2020-10-04 20:00:00 12.3 6 Sudoeste 15 Sudoeste 0 -- -- 80
2020-10-04 19:00:00 13 8 Sudoeste 19 Sudoeste 0 -- -- 76
2020-10-04 18:00:00 13.6 8 Sudoeste 19 Sur 0.4 -- -- 82
2020-10-04 17:00:00 14.6 9 Sudoeste 21 Sudoeste 0.2 -- -- 74
2020-10-04 16:00:00 11.8 9 Noroeste 22 Norte 1.4 -- -- 85
2020-10-04 15:00:00 13.7 6 Oeste 13 Sudoeste 0 -- -- 79
2020-10-04 14:00:00 12.6 7 Sudoeste 31 Noroeste 0.8 -- -- 87
2020-10-04 13:00:00 11.9 21 Noroeste 44 Oeste 0.8 -- -- 83
2020-10-04 12:00:00 15.9 22 Oeste 40 Oeste 0 -- -- 57
2020-10-04 11:00:00 12 7 Noroeste 21 Noroeste 0 -- -- 83
2020-10-04 10:00:00 10.9 3 Sudoeste 10 Sudoeste 0 -- -- 85
2020-10-04 09:00:00 10.4 4 Oeste 14 Noroeste 0 -- -- 83
2020-10-04 08:00:00 10.6 8 Noroeste 21 Noroeste 0 -- -- 78
2020-10-04 07:00:00 10 9 Oeste 19 Sudoeste 0 -- -- 77
2020-10-04 06:00:00 8.5 5 Sudoeste 15 Oeste 0 -- -- 82
2020-10-04 05:00:00 8.7 2 Oeste 22 Oeste 0 -- -- 81
2020-10-04 04:00:00 8.7 4 Oeste 10 Oeste 0 -- -- 80
2020-10-04 03:00:00 9.2 6 Oeste 11 Sudoeste 0 -- -- 77
2020-10-04 02:00:00 9.2 4 Oeste 11 Oeste 0 -- -- 77
2020-10-04 01:00:00 9.6 8 Oeste 13 Oeste 0 -- -- 75
2020-10-04 00:00:00 10 2 Noroeste 10 Noroeste 0 -- -- 79
2020-10-03 23:00:00 11 3 Noroeste 15 Sudoeste 0 -- -- 77
2020-10-03 22:00:00 12.7 7 Oeste 17 Oeste 0 -- -- 69
2020-10-03 21:00:00 13.4 7 Oeste 16 Oeste 0 -- -- 68
2020-10-03 20:00:00 14 7 Oeste 15 Oeste 0 -- -- 62
2020-10-03 19:00:00 14.6 9 Noroeste 24 Oeste 0 -- -- 59
2020-10-03 18:00:00 14.5 12 Noroeste 22 Oeste 0 -- -- 59
2020-10-03 17:00:00 13.8 6 Oeste 33 Noroeste 0 -- -- 68
2020-10-03 16:00:00 15.4 17 Noroeste 41 Oeste 0 -- -- 53
2020-10-03 15:00:00 15.4 20 Oeste 41 Oeste 0 -- -- 50
2020-10-03 14:00:00 15 29 Oeste 50 Oeste 0 -- -- 50
2020-10-03 13:00:00 14.5 26 Oeste 59 Oeste 0 -- -- 50
2020-10-03 12:00:00 13.6 30 Oeste 54 Oeste 0 -- -- 51
2020-10-03 11:00:00 11.3 19 Noroeste 40 Noroeste 0 -- -- 62
2020-10-03 10:00:00 9.7 13 Noroeste 29 Noroeste 0 -- -- 70
2020-10-03 09:00:00 9.1 12 Noroeste 26 Oeste 0 -- -- 74
2020-10-03 08:00:00 9.6 15 Oeste 37 Oeste 0 -- -- 66
2020-10-03 07:00:00 9.7 19 Oeste 39 Oeste 0 -- -- 64
2020-10-03 06:00:00 9.8 19 Oeste 43 Oeste 0 -- -- 62
2020-10-03 05:00:00 9.8 19 Oeste 41 Oeste 0 -- -- 63
2020-10-03 04:00:00 9.6 21 Oeste 34 Oeste 0 -- -- 65
2020-10-03 03:00:00 9.8 15 Oeste 38 Oeste 0 -- -- 66
2020-10-03 02:00:00 10.4 22 Oeste 38 Oeste 0 -- -- 63
2020-10-03 01:00:00 10.4 18 Oeste 44 Oeste 0 -- -- 63
2020-10-03 00:00:00 10.9 22 Oeste 35 Oeste 0 -- -- 58
2020-10-02 23:00:00 10.9 20 Oeste 32 Oeste 0 -- -- 59
2020-10-02 22:00:00 10.6 10 Oeste 26 Oeste 0 -- -- 60
2020-10-02 21:00:00 10.4 12 Oeste 24 Sudoeste 0 -- -- 63
2020-10-02 20:00:00 10.8 7 Oeste 25 Oeste 0 -- -- 59
2020-10-02 19:00:00 12.4 12 Oeste 33 Oeste 0 -- -- 54
2020-10-02 18:00:00 12.8 15 Oeste 38 Noroeste 0 -- -- 50
2020-10-02 17:00:00 12.5 19 Noroeste 41 Norte 0 -- -- 53
2020-10-02 16:00:00 12.3 19 Noroeste 44 Noroeste 0 -- -- 55
2020-10-02 15:00:00 13.3 24 Noroeste 44 Noroeste 0 -- -- 53
2020-10-02 14:00:00 12.2 15 Oeste 38 Oeste 0 -- -- 61
2020-10-02 13:00:00 11.8 14 Oeste 44 Oeste 0 -- -- 66
2020-10-02 12:00:00 10.7 12 Oeste 30 Oeste 0.2 -- -- 84
2020-10-02 11:00:00 8.8 10 Sudoeste 37 Oeste 2.2 -- -- 91
2020-10-02 10:00:00 9.6 17 Oeste 42 Noroeste 1 -- -- 87
2020-10-02 09:00:00 11.8 17 Oeste 30 Sudoeste 3.4 -- -- 92
2020-10-02 08:00:00 13.2 19 Noroeste 44 Oeste 0.2 -- -- 80
2020-10-02 07:00:00 16.3 31 Oeste 52 Oeste 0.4 -- -- 74
2020-10-02 06:00:00 18.5 19 Oeste 41 Oeste 0 -- -- 55
2020-10-02 05:00:00 17.8 16 Oeste 36 Sudoeste 0 -- -- 58
2020-10-02 04:00:00 17.3 9 Sudoeste 27 Sudoeste 0 -- -- 59
2020-10-02 03:00:00 16.7 11 Oeste 32 Sudoeste 0 -- -- 61
2020-10-02 02:00:00 13.2 3 Oeste 10 Oeste 0 -- -- 86
2020-10-02 01:00:00 13.5 2 Sudeste 12 Este 0 -- -- 80
2020-10-02 00:00:00 13.6 0 Calma 6 Sudoeste 0 -- -- 76
2020-10-01 23:00:00 14.1 3 Sur 9 Sudeste 0 -- -- 70
2020-10-01 22:00:00 14.7 0 Calma 6 Este 0 -- -- 67
2020-10-01 21:00:00 16.2 0 Calma 6 Sur 0 -- -- 63
2020-10-01 20:00:00 18.4 3 Sur 8 Sudoeste 0 -- -- 51
2020-10-01 19:00:00 20.3 7 Oeste 18 Sudoeste 0 -- -- 45
2020-10-01 18:00:00 21.2 9 Oeste 19 Oeste 0 -- -- 43
2020-10-01 17:00:00 21.9 6 Sudoeste 19 Sur 0 -- -- 45
2020-10-01 16:00:00 20.6 9 Oeste 22 Oeste 0 -- -- 49
2020-10-01 15:00:00 19.9 9 Noroeste 23 Noroeste 0 -- -- 54
2020-10-01 14:00:00 18.9 16 Noroeste 31 Oeste 0 -- -- 57
2020-10-01 13:00:00 18.5 17 Noroeste 30 Noroeste 0 -- -- 59
2020-10-01 12:00:00 17.6 12 Noroeste 26 Noroeste 0 -- -- 61
2020-10-01 11:00:00 16.8 10 Noroeste 19 Oeste 0 -- -- 65
2020-10-01 10:00:00 15.6 9 Noroeste 17 Noroeste 0 -- -- 68
2020-10-01 09:00:00 14.4 7 Oeste 14 Oeste 0 -- -- 70
2020-10-01 08:00:00 14.8 8 Noroeste 29 Oeste 0 -- -- 67
2020-10-01 07:00:00 14 15 Oeste 24 Sudoeste 0 -- -- 67
2020-10-01 06:00:00 10.3 0 Calma 6 Sudeste 0 -- -- 88
2020-10-01 05:00:00 10.5 2 Sur 8 Oeste 0 -- -- 90
2020-10-01 04:00:00 10.8 0 Calma 7 Sudoeste 0 -- -- 84
2020-10-01 03:00:00 11.4 3 Sudoeste 8 Sudoeste 0 -- -- 83
2020-10-01 02:00:00 12.4 4 Sudoeste 10 Sur 0 -- -- 79
2020-10-01 01:00:00 13.2 3 Sudoeste 14 Sudoeste 0 -- -- 75
2020-10-01 00:00:00 14 2 Sudoeste 6 Sudoeste 0 -- -- 72